sensor_id;sensor_type;location;lat;lon;timestamp;P1;durP1;ratioP1;P2;durP2;ratioP2
27999;SDS011;15328;50.860;10.562;2023-03-07T00:04:25;25.58;;;12.93;;
27999;SDS011;15328;50.860;10.562;2023-03-07T00:09:25;26.40;;;13.60;;
27999;SDS011;15328;50.860;10.562;2023-03-07T00:14:26;24.25;;;12.27;;
27999;SDS011;15328;50.860;10.562;2023-03-07T00:19:26;27.53;;;13.20;;
27999;SDS011;15328;50.860;10.562;2023-03-07T00:24:27;22.90;;;12.60;;
27999;SDS011;15328;50.860;10.562;2023-03-07T00:29:27;24.15;;;11.85;;
27999;SDS011;15328;50.860;10.562;2023-03-07T00:34:28;26.30;;;12.85;;
27999;SDS011;15328;50.860;10.562;2023-03-07T00:39:28;22.55;;;12.05;;
27999;SDS011;15328;50.860;10.562;2023-03-07T00:44:28;24.23;;;12.80;;
27999;SDS011;15328;50.860;10.562;2023-03-07T00:49:29;28.15;;;13.75;;
27999;SDS011;15328;50.860;10.562;2023-03-07T00:54:29;25.02;;;12.93;;
27999;SDS011;15328;50.860;10.562;2023-03-07T00:59:30;27.43;;;13.47;;
27999;SDS011;15328;50.860;10.562;2023-03-07T01:04:30;27.42;;;12.80;;
27999;SDS011;15328;50.860;10.562;2023-03-07T01:09:30;26.50;;;13.85;;
27999;SDS011;15328;50.860;10.562;2023-03-07T01:14:31;26.90;;;12.87;;
27999;SDS011;15328;50.860;10.562;2023-03-07T01:19:32;30.05;;;14.25;;
27999;SDS011;15328;50.860;10.562;2023-03-07T01:24:32;26.38;;;12.85;;
27999;SDS011;15328;50.860;10.562;2023-03-07T01:29:32;25.25;;;12.98;;
27999;SDS011;15328;50.860;10.562;2023-03-07T01:34:33;26.80;;;14.15;;
27999;SDS011;15328;50.860;10.562;2023-03-07T01:39:33;25.97;;;12.83;;
27999;SDS011;15328;50.860;10.562;2023-03-07T01:50:03;28.98;;;15.07;;
27999;SDS011;15328;50.860;10.562;2023-03-07T01:55:26;29.67;;;14.73;;
27999;SDS011;15328;50.860;10.562;2023-03-07T02:00:29;26.02;;;13.18;;
27999;SDS011;15328;50.860;10.562;2023-03-07T02:05:34;25.98;;;13.23;;
27999;SDS011;15328;50.860;10.562;2023-03-07T02:10:37;31.38;;;15.43;;
27999;SDS011;15328;50.860;10.562;2023-03-07T02:15:39;27.48;;;14.40;;
27999;SDS011;15328;50.860;10.562;2023-03-07T02:20:47;30.90;;;15.32;;
27999;SDS011;15328;50.860;10.562;2023-03-07T02:31:00;31.13;;;15.32;;
27999;SDS011;15328;50.860;10.562;2023-03-07T02:36:03;30.73;;;15.57;;
27999;SDS011;15328;50.860;10.562;2023-03-07T02:41:07;32.53;;;15.90;;
27999;SDS011;15328;50.860;10.562;2023-03-07T02:46:10;34.05;;;15.98;;
27999;SDS011;15328;50.860;10.562;2023-03-07T02:51:11;32.47;;;14.32;;
27999;SDS011;15328;50.860;10.562;2023-03-07T02:56:12;34.40;;;15.90;;
27999;SDS011;15328;50.860;10.562;2023-03-07T03:01:12;33.50;;;15.55;;
27999;SDS011;15328;50.860;10.562;2023-03-07T03:06:12;31.65;;;15.15;;
27999;SDS011;15328;50.860;10.562;2023-03-07T03:11:13;31.73;;;15.38;;
27999;SDS011;15328;50.860;10.562;2023-03-07T03:16:13;33.93;;;14.87;;
27999;SDS011;15328;50.860;10.562;2023-03-07T03:21:13;30.20;;;14.02;;
27999;SDS011;15328;50.860;10.562;2023-03-07T03:26:14;26.65;;;12.93;;
27999;SDS011;15328;50.860;10.562;2023-03-07T03:31:15;30.02;;;13.80;;
27999;SDS011;15328;50.860;10.562;2023-03-07T03:36:15;25.05;;;12.52;;
27999;SDS011;15328;50.860;10.562;2023-03-07T03:41:16;23.92;;;11.48;;
27999;SDS011;15328;50.860;10.562;2023-03-07T03:46:16;24.23;;;11.43;;
27999;SDS011;15328;50.860;10.562;2023-03-07T03:51:18;21.98;;;10.70;;
27999;SDS011;15328;50.860;10.562;2023-03-07T03:56:20;20.75;;;10.68;;
27999;SDS011;15328;50.860;10.562;2023-03-07T04:01:23;19.05;;;9.52;;
27999;SDS011;15328;50.860;10.562;2023-03-07T04:06:29;20.33;;;10.18;;
27999;SDS011;15328;50.860;10.562;2023-03-07T04:11:32;18.63;;;9.43;;
27999;SDS011;15328;50.860;10.562;2023-03-07T04:16:32;17.30;;;8.98;;
27999;SDS011;15328;50.860;10.562;2023-03-07T04:21:33;16.53;;;8.50;;
27999;SDS011;15328;50.860;10.562;2023-03-07T04:26:33;16.20;;;8.73;;
27999;SDS011;15328;50.860;10.562;2023-03-07T04:31:35;16.58;;;8.45;;
27999;SDS011;15328;50.860;10.562;2023-03-07T04:36:35;15.90;;;7.97;;
27999;SDS011;15328;50.860;10.562;2023-03-07T04:41:35;13.27;;;7.00;;
27999;SDS011;15328;50.860;10.562;2023-03-07T04:46:36;12.75;;;7.38;;
27999;SDS011;15328;50.860;10.562;2023-03-07T04:51:36;14.87;;;7.90;;
27999;SDS011;15328;50.860;10.562;2023-03-07T04:56:36;14.80;;;7.80;;
27999;SDS011;15328;50.860;10.562;2023-03-07T05:01:37;13.90;;;7.73;;
27999;SDS011;15328;50.860;10.562;2023-03-07T05:06:37;14.40;;;7.90;;
27999;SDS011;15328;50.860;10.562;2023-03-07T05:11:37;15.93;;;8.03;;
27999;SDS011;15328;50.860;10.562;2023-03-07T05:16:38;15.40;;;7.90;;
27999;SDS011;15328;50.860;10.562;2023-03-07T05:21:38;10.98;;;6.30;;
27999;SDS011;15328;50.860;10.562;2023-03-07T05:26:40;12.40;;;6.82;;
27999;SDS011;15328;50.860;10.562;2023-03-07T05:31:41;10.05;;;6.03;;
27999;SDS011;15328;50.860;10.562;2023-03-07T05:36:41;10.32;;;6.10;;
27999;SDS011;15328;50.860;10.562;2023-03-07T05:41:42;10.73;;;5.63;;
27999;SDS011;15328;50.860;10.562;2023-03-07T05:46:42;11.68;;;6.32;;
27999;SDS011;15328;50.860;10.562;2023-03-07T05:51:42;12.57;;;7.23;;
27999;SDS011;15328;50.860;10.562;2023-03-07T05:56:43;13.47;;;7.63;;
27999;SDS011;15328;50.860;10.562;2023-03-07T06:01:43;13.97;;;7.60;;
27999;SDS011;15328;50.860;10.562;2023-03-07T06:06:43;11.38;;;6.18;;
27999;SDS011;15328;50.860;10.562;2023-03-07T06:11:44;11.23;;;6.25;;
27999;SDS011;15328;50.860;10.562;2023-03-07T06:16:44;10.57;;;6.53;;
27999;SDS011;15328;50.860;10.562;2023-03-07T06:21:44;11.70;;;6.80;;
27999;SDS011;15328;50.860;10.562;2023-03-07T06:26:45;12.13;;;6.80;;
27999;SDS011;15328;50.860;10.562;2023-03-07T06:31:45;12.17;;;7.00;;
27999;SDS011;15328;50.860;10.562;2023-03-07T06:36:45;12.30;;;7.18;;
27999;SDS011;15328;50.860;10.562;2023-03-07T06:41:47;10.70;;;6.55;;
27999;SDS011;15328;50.860;10.562;2023-03-07T06:46:49;11.55;;;7.22;;
27999;SDS011;15328;50.860;10.562;2023-03-07T06:51:49;15.48;;;7.25;;
27999;SDS011;15328;50.860;10.562;2023-03-07T06:56:50;15.27;;;8.15;;
27999;SDS011;15328;50.860;10.562;2023-03-07T07:01:50;12.77;;;7.38;;
27999;SDS011;15328;50.860;10.562;2023-03-07T07:06:51;12.18;;;7.45;;
27999;SDS011;15328;50.860;10.562;2023-03-07T07:11:51;13.17;;;7.80;;
27999;SDS011;15328;50.860;10.562;2023-03-07T07:16:51;13.55;;;8.15;;
27999;SDS011;15328;50.860;10.562;2023-03-07T07:21:52;14.43;;;8.00;;
27999;SDS011;15328;50.860;10.562;2023-03-07T07:26:52;14.93;;;9.02;;
27999;SDS011;15328;50.860;10.562;2023-03-07T07:31:54;18.48;;;10.00;;
27999;SDS011;15328;50.860;10.562;2023-03-07T07:36:55;15.13;;;8.90;;
27999;SDS011;15328;50.860;10.562;2023-03-07T07:41:55;15.70;;;9.63;;
27999;SDS011;15328;50.860;10.562;2023-03-07T07:46:56;14.48;;;8.50;;
27999;SDS011;15328;50.860;10.562;2023-03-07T07:51:56;16.45;;;9.45;;
27999;SDS011;15328;50.860;10.562;2023-03-07T07:56:57;17.93;;;10.10;;
27999;SDS011;15328;50.860;10.562;2023-03-07T08:01:57;19.40;;;10.43;;
27999;SDS011;15328;50.860;10.562;2023-03-07T08:06:57;16.00;;;9.83;;
27999;SDS011;15328;50.860;10.562;2023-03-07T08:11:59;19.10;;;11.48;;
27999;SDS011;15328;50.860;10.562;2023-03-07T08:16:59;19.13;;;10.10;;
27999;SDS011;15328;50.860;10.562;2023-03-07T08:22:00;19.38;;;10.63;;
27999;SDS011;15328;50.860;10.562;2023-03-07T08:27:00;17.98;;;9.82;;
27999;SDS011;15328;50.860;10.562;2023-03-07T08:32:02;19.02;;;10.93;;
27999;SDS011;15328;50.860;10.562;2023-03-07T08:37:02;17.77;;;10.13;;
27999;SDS011;15328;50.860;10.562;2023-03-07T08:42:03;19.08;;;10.48;;
27999;SDS011;15328;50.860;10.562;2023-03-07T08:47:03;18.20;;;10.32;;
27999;SDS011;15328;50.860;10.562;2023-03-07T08:52:03;18.92;;;11.23;;
27999;SDS011;15328;50.860;10.562;2023-03-07T08:57:04;18.55;;;9.70;;
27999;SDS011;15328;50.860;10.562;2023-03-07T09:02:04;18.38;;;10.05;;
27999;SDS011;15328;50.860;10.562;2023-03-07T09:07:05;17.35;;;10.13;;
27999;SDS011;15328;50.860;10.562;2023-03-07T09:12:05;18.08;;;10.15;;
27999;SDS011;15328;50.860;10.562;2023-03-07T09:17:06;19.10;;;10.80;;
27999;SDS011;15328;50.860;10.562;2023-03-07T09:22:06;17.77;;;10.13;;
27999;SDS011;15328;50.860;10.562;2023-03-07T09:27:07;17.45;;;10.10;;
27999;SDS011;15328;50.860;10.562;2023-03-07T09:32:07;17.93;;;10.07;;
27999;SDS011;15328;50.860;10.562;2023-03-07T09:37:08;18.70;;;9.52;;
27999;SDS011;15328;50.860;10.562;2023-03-07T09:53:02;16.70;;;9.23;;
27999;SDS011;15328;50.860;10.562;2023-03-07T09:58:07;15.43;;;8.93;;
27999;SDS011;15328;50.860;10.562;2023-03-07T10:08:50;20.67;;;9.32;;
27999;SDS011;15328;50.860;10.562;2023-03-07T10:19:24;13.95;;;8.02;;
27999;SDS011;15328;50.860;10.562;2023-03-07T10:29:55;13.73;;;8.20;;
27999;SDS011;15328;50.860;10.562;2023-03-07T10:40:47;12.70;;;7.80;;
27999;SDS011;15328;50.860;10.562;2023-03-07T10:45:47;16.00;;;8.60;;
27999;SDS011;15328;50.860;10.562;2023-03-07T10:51:34;13.33;;;7.47;;
27999;SDS011;15328;50.860;10.562;2023-03-07T10:56:23;13.55;;;7.97;;
27999;SDS011;15328;50.860;10.562;2023-03-07T11:01:23;13.35;;;7.22;;
27999;SDS011;15328;50.860;10.562;2023-03-07T11:06:33;15.10;;;7.00;;
27999;SDS011;15328;50.860;10.562;2023-03-07T11:11:34;14.13;;;7.80;;
27999;SDS011;15328;50.860;10.562;2023-03-07T11:16:39;13.10;;;7.57;;
27999;SDS011;15328;50.860;10.562;2023-03-07T11:21:41;13.65;;;7.00;;
27999;SDS011;15328;50.860;10.562;2023-03-07T11:26:53;15.18;;;7.72;;
27999;SDS011;15328;50.860;10.562;2023-03-07T11:32:18;15.55;;;8.60;;
27999;SDS011;15328;50.860;10.562;2023-03-07T11:37:37;13.02;;;8.10;;
27999;SDS011;15328;50.860;10.562;2023-03-07T11:42:54;12.73;;;7.53;;
27999;SDS011;15328;50.860;10.562;2023-03-07T11:59:01;12.07;;;7.03;;
27999;SDS011;15328;50.860;10.562;2023-03-07T12:15:51;13.60;;;7.15;;
27999;SDS011;15328;50.860;10.562;2023-03-07T12:21:21;11.48;;;7.20;;
27999;SDS011;15328;50.860;10.562;2023-03-07T12:26:45;13.32;;;7.65;;
27999;SDS011;15328;50.860;10.562;2023-03-07T12:31:50;11.45;;;7.07;;
27999;SDS011;15328;50.860;10.562;2023-03-07T12:36:57;12.63;;;7.38;;
27999;SDS011;15328;50.860;10.562;2023-03-07T12:47:24;14.07;;;7.70;;
27999;SDS011;15328;50.860;10.562;2023-03-07T12:52:29;13.50;;;7.80;;
27999;SDS011;15328;50.860;10.562;2023-03-07T12:57:36;12.15;;;7.80;;
27999;SDS011;15328;50.860;10.562;2023-03-07T13:02:45;11.93;;;7.15;;
27999;SDS011;15328;50.860;10.562;2023-03-07T13:07:51;12.35;;;6.95;;
27999;SDS011;15328;50.860;10.562;2023-03-07T13:12:53;12.32;;;7.28;;
27999;SDS011;15328;50.860;10.562;2023-03-07T13:17:54;12.07;;;7.68;;
27999;SDS011;15328;50.860;10.562;2023-03-07T13:22:58;11.60;;;7.32;;
27999;SDS011;15328;50.860;10.562;2023-03-07T13:28:00;13.32;;;7.70;;
27999;SDS011;15328;50.860;10.562;2023-03-07T13:38:33;11.40;;;7.18;;
27999;SDS011;15328;50.860;10.562;2023-03-07T13:53:54;10.88;;;7.35;;
27999;SDS011;15328;50.860;10.562;2023-03-07T13:59:02;9.43;;;6.07;;
27999;SDS011;15328;50.860;10.562;2023-03-07T14:09:41;13.32;;;7.57;;
27999;SDS011;15328;50.860;10.562;2023-03-07T14:15:02;14.80;;;7.53;;
27999;SDS011;15328;50.860;10.562;2023-03-07T14:25:49;15.50;;;7.82;;
27999;SDS011;15328;50.860;10.562;2023-03-07T14:31:00;13.30;;;7.57;;
27999;SDS011;15328;50.860;10.562;2023-03-07T14:36:21;14.43;;;7.68;;
27999;SDS011;15328;50.860;10.562;2023-03-07T14:46:37;12.52;;;7.35;;
27999;SDS011;15328;50.860;10.562;2023-03-07T14:51:40;12.82;;;8.07;;
27999;SDS011;15328;50.860;10.562;2023-03-07T14:56:42;11.70;;;7.35;;
27999;SDS011;15328;50.860;10.562;2023-03-07T15:01:43;14.10;;;8.27;;
27999;SDS011;15328;50.860;10.562;2023-03-07T15:06:44;13.30;;;8.70;;
27999;SDS011;15328;50.860;10.562;2023-03-07T15:11:52;14.48;;;8.45;;
27999;SDS011;15328;50.860;10.562;2023-03-07T15:17:06;15.35;;;8.80;;
27999;SDS011;15328;50.860;10.562;2023-03-07T15:22:14;14.45;;;8.65;;
27999;SDS011;15328;50.860;10.562;2023-03-07T15:27:21;16.20;;;8.88;;
27999;SDS011;15328;50.860;10.562;2023-03-07T15:32:32;14.30;;;8.50;;
27999;SDS011;15328;50.860;10.562;2023-03-07T15:48:29;16.27;;;9.15;;
27999;SDS011;15328;50.860;10.562;2023-03-07T15:53:35;13.55;;;8.32;;
27999;SDS011;15328;50.860;10.562;2023-03-07T15:58:37;16.40;;;8.60;;
27999;SDS011;15328;50.860;10.562;2023-03-07T16:03:46;15.75;;;8.75;;
27999;SDS011;15328;50.860;10.562;2023-03-07T16:08:54;15.30;;;9.15;;
27999;SDS011;15328;50.860;10.562;2023-03-07T16:13:54;17.25;;;9.77;;
27999;SDS011;15328;50.860;10.562;2023-03-07T16:18:55;15.18;;;9.10;;
27999;SDS011;15328;50.860;10.562;2023-03-07T16:23:57;16.15;;;9.40;;
27999;SDS011;15328;50.860;10.562;2023-03-07T16:28:57;16.58;;;9.52;;
27999;SDS011;15328;50.860;10.562;2023-03-07T16:33:59;15.30;;;9.52;;
27999;SDS011;15328;50.860;10.562;2023-03-07T16:39:00;16.42;;;10.18;;
27999;SDS011;15328;50.860;10.562;2023-03-07T16:44:00;14.88;;;9.48;;
27999;SDS011;15328;50.860;10.562;2023-03-07T16:49:01;19.85;;;10.68;;
27999;SDS011;15328;50.860;10.562;2023-03-07T16:54:02;19.05;;;10.35;;
27999;SDS011;15328;50.860;10.562;2023-03-07T16:59:03;19.27;;;10.40;;
27999;SDS011;15328;50.860;10.562;2023-03-07T17:04:04;19.95;;;10.35;;
27999;SDS011;15328;50.860;10.562;2023-03-07T17:09:05;17.33;;;10.18;;
27999;SDS011;15328;50.860;10.562;2023-03-07T17:14:08;17.92;;;10.27;;
27999;SDS011;15328;50.860;10.562;2023-03-07T17:19:28;18.60;;;10.73;;
27999;SDS011;15328;50.860;10.562;2023-03-07T17:24:29;16.63;;;10.73;;
27999;SDS011;15328;50.860;10.562;2023-03-07T17:29:32;17.30;;;10.10;;
27999;SDS011;15328;50.860;10.562;2023-03-07T17:34:37;19.25;;;10.68;;
27999;SDS011;15328;50.860;10.562;2023-03-07T17:39:38;18.83;;;11.10;;
27999;SDS011;15328;50.860;10.562;2023-03-07T17:44:39;20.48;;;10.10;;
27999;SDS011;15328;50.860;10.562;2023-03-07T17:49:39;18.23;;;10.23;;
27999;SDS011;15328;50.860;10.562;2023-03-07T17:54:39;17.75;;;10.20;;
27999;SDS011;15328;50.860;10.562;2023-03-07T17:59:40;16.92;;;10.18;;
27999;SDS011;15328;50.860;10.562;2023-03-07T18:04:41;20.45;;;11.48;;
27999;SDS011;15328;50.860;10.562;2023-03-07T18:09:41;19.23;;;11.20;;
27999;SDS011;15328;50.860;10.562;2023-03-07T18:14:41;15.00;;;8.90;;
27999;SDS011;15328;50.860;10.562;2023-03-07T18:19:42;16.00;;;9.87;;
27999;SDS011;15328;50.860;10.562;2023-03-07T18:24:42;15.50;;;9.00;;
27999;SDS011;15328;50.860;10.562;2023-03-07T18:29:42;13.60;;;8.90;;
27999;SDS011;15328;50.860;10.562;2023-03-07T18:34:43;14.57;;;9.00;;
27999;SDS011;15328;50.860;10.562;2023-03-07T18:39:44;9.20;;;5.80;;
27999;SDS011;15328;50.860;10.562;2023-03-07T18:44:44;5.28;;;3.40;;
27999;SDS011;15328;50.860;10.562;2023-03-07T18:49:47;4.00;;;2.72;;
27999;SDS011;15328;50.860;10.562;2023-03-07T18:54:48;3.50;;;2.30;;
27999;SDS011;15328;50.860;10.562;2023-03-07T18:59:48;2.40;;;1.80;;
27999;SDS011;15328;50.860;10.562;2023-03-07T19:04:51;3.17;;;2.05;;
27999;SDS011;15328;50.860;10.562;2023-03-07T19:09:52;3.60;;;2.47;;
27999;SDS011;15328;50.860;10.562;2023-03-07T19:14:53;3.95;;;2.58;;
27999;SDS011;15328;50.860;10.562;2023-03-07T19:19:53;3.70;;;2.72;;
27999;SDS011;15328;50.860;10.562;2023-03-07T19:25:01;4.28;;;3.30;;
27999;SDS011;15328;50.860;10.562;2023-03-07T19:30:01;3.75;;;3.10;;
27999;SDS011;15328;50.860;10.562;2023-03-07T19:35:02;5.32;;;3.30;;
27999;SDS011;15328;50.860;10.562;2023-03-07T19:40:03;4.32;;;3.20;;
27999;SDS011;15328;50.860;10.562;2023-03-07T19:45:05;4.50;;;3.42;;
27999;SDS011;15328;50.860;10.562;2023-03-07T19:50:06;6.07;;;4.18;;
27999;SDS011;15328;50.860;10.562;2023-03-07T19:55:07;8.05;;;5.00;;
27999;SDS011;15328;50.860;10.562;2023-03-07T20:00:08;4.40;;;3.13;;
27999;SDS011;15328;50.860;10.562;2023-03-07T20:05:09;4.25;;;2.72;;
27999;SDS011;15328;50.860;10.562;2023-03-07T20:10:10;2.90;;;2.03;;
27999;SDS011;15328;50.860;10.562;2023-03-07T20:15:11;4.05;;;2.70;;
27999;SDS011;15328;50.860;10.562;2023-03-07T20:20:11;7.55;;;3.80;;
27999;SDS011;15328;50.860;10.562;2023-03-07T20:25:12;6.38;;;3.92;;
27999;SDS011;15328;50.860;10.562;2023-03-07T20:30:13;3.92;;;2.53;;
27999;SDS011;15328;50.860;10.562;2023-03-07T20:35:15;2.08;;;1.42;;
27999;SDS011;15328;50.860;10.562;2023-03-07T20:40:16;1.08;;;0.82;;
27999;SDS011;15328;50.860;10.562;2023-03-07T20:45:17;0.80;;;0.70;;
27999;SDS011;15328;50.860;10.562;2023-03-07T20:50:17;0.98;;;0.60;;
27999;SDS011;15328;50.860;10.562;2023-03-07T20:55:18;0.70;;;0.60;;
27999;SDS011;15328;50.860;10.562;2023-03-07T21:00:19;0.40;;;0.40;;
27999;SDS011;15328;50.860;10.562;2023-03-07T21:05:20;0.63;;;0.38;;
27999;SDS011;15328;50.860;10.562;2023-03-07T21:10:20;0.55;;;0.40;;
27999;SDS011;15328;50.860;10.562;2023-03-07T21:15:21;0.30;;;0.20;;
27999;SDS011;15328;50.860;10.562;2023-03-07T21:20:21;0.40;;;0.30;;
27999;SDS011;15328;50.860;10.562;2023-03-07T21:25:22;0.40;;;0.30;;
27999;SDS011;15328;50.860;10.562;2023-03-07T21:30:22;0.50;;;0.43;;
27999;SDS011;15328;50.860;10.562;2023-03-07T21:35:23;0.35;;;0.30;;
27999;SDS011;15328;50.860;10.562;2023-03-07T21:40:23;0.88;;;0.50;;
27999;SDS011;15328;50.860;10.562;2023-03-07T21:45:23;0.37;;;0.37;;
27999;SDS011;15328;50.860;10.562;2023-03-07T21:50:24;0.43;;;0.30;;
27999;SDS011;15328;50.860;10.562;2023-03-07T21:55:24;0.52;;;0.20;;
27999;SDS011;15328;50.860;10.562;2023-03-07T22:00:24;0.30;;;0.30;;
27999;SDS011;15328;50.860;10.562;2023-03-07T22:05:26;0.50;;;0.40;;
27999;SDS011;15328;50.860;10.562;2023-03-07T22:10:26;0.50;;;0.43;;
27999;SDS011;15328;50.860;10.562;2023-03-07T22:15:26;0.63;;;0.47;;
27999;SDS011;15328;50.860;10.562;2023-03-07T22:20:27;0.65;;;0.50;;
27999;SDS011;15328;50.860;10.562;2023-03-07T22:25:27;0.60;;;0.40;;
27999;SDS011;15328;50.860;10.562;2023-03-07T22:30:28;0.55;;;0.47;;
27999;SDS011;15328;50.860;10.562;2023-03-07T22:35:28;0.50;;;0.40;;
27999;SDS011;15328;50.860;10.562;2023-03-07T22:40:28;0.90;;;0.68;;
27999;SDS011;15328;50.860;10.562;2023-03-07T22:45:29;1.45;;;0.90;;
27999;SDS011;15328;50.860;10.562;2023-03-07T22:50:29;1.13;;;0.70;;
27999;SDS011;15328;50.860;10.562;2023-03-07T22:55:30;0.88;;;0.60;;
27999;SDS011;15328;50.860;10.562;2023-03-07T23:00:30;1.25;;;0.70;;
27999;SDS011;15328;50.860;10.562;2023-03-07T23:05:31;0.60;;;0.43;;
27999;SDS011;15328;50.860;10.562;2023-03-07T23:10:32;0.80;;;0.68;;
27999;SDS011;15328;50.860;10.562;2023-03-07T23:15:33;1.25;;;0.77;;
27999;SDS011;15328;50.860;10.562;2023-03-07T23:20:35;0.90;;;0.60;;
27999;SDS011;15328;50.860;10.562;2023-03-07T23:25:38;1.38;;;1.00;;
27999;SDS011;15328;50.860;10.562;2023-03-07T23:30:41;1.10;;;0.80;;
27999;SDS011;15328;50.860;10.562;2023-03-07T23:35:41;1.40;;;0.90;;
27999;SDS011;15328;50.860;10.562;2023-03-07T23:40:42;0.68;;;0.63;;
27999;SDS011;15328;50.860;10.562;2023-03-07T23:45:46;1.45;;;1.00;;
27999;SDS011;15328;50.860;10.562;2023-03-07T23:51:08;1.63;;;1.40;;
27999;SDS011;15328;50.860;10.562;2023-03-07T23:56:09;1.95;;;1.42;;
